createdAt,value
2017-08-21T00:01:59.985Z,7.60
2017-08-21T00:04:27.540Z,7.45
2017-08-21T00:06:55.101Z,6.90
2017-08-21T00:09:22.633Z,8.17
2017-08-21T00:11:50.173Z,8.23
2017-08-21T00:14:17.741Z,7.40
2017-08-21T00:16:45.288Z,8.30
2017-08-21T00:19:14.561Z,6.60
2017-08-21T00:21:42.179Z,7.10
2017-08-21T00:24:09.713Z,6.40
2017-08-21T00:26:37.254Z,7.20
2017-08-21T00:29:04.853Z,7.00
2017-08-21T00:31:32.396Z,7.10
2017-08-21T00:33:59.937Z,6.50
2017-08-21T00:36:27.841Z,8.07
2017-08-21T00:39:25.948Z,7.30
2017-08-21T00:41:53.573Z,6.28
2017-08-21T00:44:21.117Z,7.18
2017-08-21T00:46:48.653Z,6.50
2017-08-21T00:49:16.429Z,8.23
2017-08-21T00:51:43.973Z,7.87
2017-08-21T00:54:11.499Z,6.80
2017-08-21T00:56:39.056Z,7.33
2017-08-21T00:59:06.601Z,7.40
2017-08-21T01:01:34.137Z,7.23
2017-08-21T01:04:01.742Z,7.87
2017-08-21T01:06:29.307Z,7.30
2017-08-21T01:08:56.852Z,7.70
2017-08-21T01:11:24.417Z,7.07
2017-08-21T01:13:51.952Z,6.90
2017-08-21T01:16:19.496Z,6.53
2017-08-21T01:18:47.057Z,6.63
2017-08-21T01:21:16.381Z,7.30
2017-08-21T01:23:43.917Z,7.80
2017-08-21T01:26:11.525Z,8.57
2017-08-21T01:28:39.066Z,7.93
2017-08-21T01:31:06.614Z,8.00
2017-08-21T01:33:34.377Z,8.50
2017-08-21T01:36:01.921Z,8.03
2017-08-21T01:38:29.472Z,8.15
2017-08-21T01:40:57.037Z,8.33
2017-08-21T01:43:24.580Z,7.57
2017-08-21T01:45:52.129Z,7.90
2017-08-21T01:48:19.751Z,8.57
2017-08-21T01:50:47.288Z,8.37
2017-08-21T01:53:16.407Z,8.32
2017-08-21T01:55:43.968Z,7.80
2017-08-21T01:58:11.516Z,7.80
2017-08-21T02:00:39.056Z,7.60
2017-08-21T02:03:06.625Z,7.90
2017-08-21T02:05:34.165Z,8.90
2017-08-21T02:08:01.704Z,8.13
2017-08-21T02:10:29.309Z,7.93
2017-08-21T02:12:56.844Z,7.20
2017-08-21T02:15:24.389Z,7.57
2017-08-21T02:17:51.969Z,7.50
2017-08-21T02:20:19.509Z,8.70
2017-08-21T02:22:47.048Z,8.20
2017-08-21T02:25:16.432Z,8.40
2017-08-21T02:27:43.973Z,7.93
2017-08-21T02:30:11.520Z,8.43
2017-08-21T02:32:39.877Z,8.57
2017-08-21T02:35:07.431Z,8.02
2017-08-21T02:37:34.977Z,8.60
2017-08-21T02:40:03.164Z,8.40
2017-08-21T02:42:30.700Z,6.73
2017-08-21T02:44:58.237Z,7.40
2017-08-21T02:47:25.805Z,8.05
2017-08-21T02:49:53.355Z,8.03
2017-08-21T02:52:20.908Z,8.00
2017-08-21T02:54:48.512Z,7.90
2017-08-21T02:57:16.414Z,8.20
2017-08-21T02:59:43.961Z,7.93
2017-08-21T03:02:11.536Z,7.83
2017-08-21T03:04:39.853Z,8.90
2017-08-21T03:07:07.400Z,9.03
2017-08-21T03:09:34.968Z,7.50
2017-08-21T03:12:02.513Z,7.40
2017-08-21T03:14:30.050Z,7.53
2017-08-21T03:16:58.409Z,8.30
2017-08-21T03:19:25.950Z,8.10
2017-08-21T03:21:53.489Z,7.32
2017-08-21T03:24:21.056Z,8.20
2017-08-21T03:26:48.617Z,8.90
2017-08-21T03:29:16.420Z,8.13
2017-08-21T03:31:43.992Z,7.63
2017-08-21T03:34:11.534Z,7.80
2017-08-21T03:36:39.077Z,9.03
2017-08-21T03:39:06.675Z,7.67
2017-08-21T03:41:34.553Z,8.67
2017-08-21T03:44:02.093Z,7.90
2017-08-21T03:46:29.713Z,7.00
2017-08-21T03:48:57.255Z,8.73
2017-08-21T03:51:24.793Z,7.50
2017-08-21T03:53:52.371Z,7.77
2017-08-21T03:56:19.920Z,7.47
2017-08-21T03:58:47.461Z,7.45
2017-08-21T04:01:16.593Z,8.18
2017-08-21T04:03:44.126Z,9.17
2017-08-21T04:06:11.669Z,7.90
2017-08-21T04:08:39.237Z,7.30
2017-08-21T04:11:06.782Z,7.00
2017-08-21T04:13:34.320Z,8.30
2017-08-21T04:16:01.880Z,7.70
2017-08-21T04:18:29.419Z,6.90
2017-08-21T04:20:56.971Z,8.10
2017-08-21T04:23:24.608Z,7.28
2017-08-21T04:25:52.156Z,8.40
2017-08-21T04:28:19.700Z,7.93
2017-08-21T04:30:47.259Z,8.40
2017-08-21T04:33:16.462Z,8.30
2017-08-21T04:35:44.005Z,7.90
2017-08-21T04:38:11.560Z,8.03
2017-08-21T04:40:39.104Z,8.20
2017-08-21T04:43:07.084Z,8.83
2017-08-21T04:45:34.677Z,8.53
2017-08-21T04:48:02.221Z,8.27
2017-08-21T04:50:29.760Z,7.80
2017-08-21T04:52:57.356Z,7.90
2017-08-21T04:55:24.900Z,7.83
2017-08-21T04:57:52.437Z,7.60
2017-08-21T05:00:20.024Z,8.10
2017-08-21T05:02:47.569Z,7.80
2017-08-21T05:05:16.468Z,8.40
2017-08-21T05:07:44.074Z,8.53
2017-08-21T05:10:11.617Z,8.10
2017-08-21T05:12:39.153Z,7.27
2017-08-21T05:15:06.726Z,8.53
2017-08-21T05:17:34.297Z,7.68
2017-08-21T05:20:02.611Z,7.87
2017-08-21T05:22:30.179Z,7.10
2017-08-21T05:24:57.726Z,7.90
2017-08-21T05:27:25.273Z,7.37
2017-08-21T05:29:52.869Z,7.87
2017-08-21T05:32:20.414Z,8.15
2017-08-21T05:34:47.957Z,7.40
2017-08-21T05:37:16.509Z,7.55
2017-08-21T05:39:44.049Z,7.50
2017-08-21T05:42:11.596Z,7.30
2017-08-21T05:44:39.177Z,7.60
2017-08-21T05:47:06.711Z,6.80
2017-08-21T05:49:34.256Z,7.80
2017-08-21T05:52:01.852Z,7.10
2017-08-21T05:54:29.397Z,7.00
2017-08-21T05:56:56.941Z,6.80
2017-08-21T05:59:24.549Z,7.07
2017-08-21T06:01:52.080Z,7.87
2017-08-21T06:04:19.617Z,7.95
2017-08-21T06:06:47.185Z,7.00
2017-08-21T06:09:16.406Z,6.32
2017-08-21T06:11:43.958Z,6.53
2017-08-21T06:14:11.544Z,6.25
2017-08-21T06:16:39.093Z,8.33
2017-08-21T06:19:06.637Z,7.40
2017-08-21T06:21:34.204Z,7.27
2017-08-21T06:24:01.744Z,7.37
2017-08-21T06:26:29.295Z,7.10
2017-08-21T06:28:56.872Z,6.63
2017-08-21T06:31:24.409Z,6.93
2017-08-21T06:33:51.950Z,6.30
2017-08-21T06:36:19.545Z,5.40
2017-08-21T06:38:47.089Z,5.90
2017-08-21T06:41:15.613Z,5.63
2017-08-21T06:43:43.185Z,6.80
2017-08-21T06:46:10.964Z,5.30
2017-08-21T06:48:38.505Z,5.70
2017-08-21T06:51:06.076Z,5.20
2017-08-21T06:53:33.616Z,4.97
2017-08-21T06:56:01.149Z,5.40
2017-08-21T06:58:28.776Z,5.40
2017-08-21T07:00:56.316Z,4.93
2017-08-21T07:03:23.857Z,5.55
2017-08-21T07:05:51.448Z,5.05
2017-08-21T07:08:19.021Z,5.20
2017-08-21T07:10:46.875Z,4.70
2017-08-21T07:13:25.843Z,4.22
2017-08-21T07:18:36.169Z,4.67
2017-08-21T07:21:03.745Z,4.40
2017-08-21T07:23:31.288Z,4.40
2017-08-21T07:25:59.621Z,5.07
2017-08-21T07:28:27.165Z,4.83
2017-08-21T07:30:54.708Z,4.17
2017-08-21T07:33:22.301Z,4.40
2017-08-21T07:35:49.964Z,4.83
2017-08-21T07:38:17.538Z,4.30
2017-08-21T07:40:45.165Z,4.10
2017-08-21T07:43:12.731Z,4.70
2017-08-21T07:45:40.271Z,4.93
2017-08-21T07:48:08.221Z,4.60
2017-08-21T07:50:35.760Z,4.50
2017-08-21T07:53:03.309Z,4.30
2017-08-21T07:55:30.923Z,4.43
2017-08-21T07:57:58.568Z,4.80
2017-08-21T08:00:26.272Z,3.97
2017-08-21T08:02:53.861Z,4.40
2017-08-21T08:05:21.484Z,4.40
2017-08-21T08:07:49.046Z,3.93
2017-08-21T08:10:16.687Z,4.50
2017-08-21T08:12:44.243Z,4.43
2017-08-21T08:15:11.780Z,4.00
2017-08-21T08:17:39.377Z,4.30
2017-08-21T08:20:06.917Z,4.30
2017-08-21T08:22:34.470Z,3.80
2017-08-21T08:25:02.085Z,3.67
2017-08-21T08:27:29.629Z,4.07
2017-08-21T08:29:57.177Z,4.03
2017-08-21T08:32:24.743Z,4.10
2017-08-21T08:34:52.284Z,4.10
2017-08-21T08:37:19.820Z,3.70
2017-08-21T08:39:47.531Z,3.50
2017-08-21T08:42:16.416Z,3.53
2017-08-21T08:44:43.997Z,4.07
2017-08-21T08:47:11.743Z,3.57
2017-08-21T08:49:39.563Z,3.03
2017-08-21T08:52:07.135Z,3.10
2017-08-21T08:54:34.723Z,2.90
2017-08-21T08:57:02.281Z,3.00
2017-08-21T08:59:29.887Z,2.80
2017-08-21T09:01:57.757Z,3.17
2017-08-21T09:04:25.309Z,2.77
2017-08-21T09:06:52.901Z,2.47
2017-08-21T09:09:20.529Z,2.86
2017-08-21T09:11:48.118Z,2.60
2017-08-21T09:14:16.417Z,2.62
2017-08-21T09:16:44.033Z,2.27
2017-08-21T09:19:11.612Z,2.80
2017-08-21T09:21:39.320Z,2.20
2017-08-21T09:24:07.042Z,2.37
2017-08-21T09:26:35.363Z,2.33
2017-08-21T09:29:03.333Z,2.30
2017-08-21T09:31:30.962Z,2.25
2017-08-21T09:33:58.569Z,2.47
2017-08-21T09:36:26.132Z,1.95
2017-08-21T09:38:53.768Z,3.30
2017-08-21T09:41:21.326Z,2.15
2017-08-21T09:43:48.932Z,2.03
2017-08-21T09:46:16.562Z,2.50
2017-08-21T09:48:44.161Z,2.53
2017-08-21T09:51:12.174Z,2.13
2017-08-21T09:53:39.840Z,2.47
2017-08-21T09:56:07.414Z,3.33
2017-08-21T09:58:34.964Z,2.33
2017-08-21T10:01:02.540Z,2.20
2017-08-21T10:03:31.345Z,2.60
2017-08-21T10:05:58.906Z,2.10
2017-08-21T10:08:26.478Z,2.25
2017-08-21T10:10:54.025Z,2.53
2017-08-21T10:13:21.654Z,2.50
2017-08-21T10:15:49.298Z,2.27
2017-08-21T10:18:16.899Z,2.10
2017-08-21T10:20:44.485Z,2.62
2017-08-21T10:23:12.126Z,2.70
2017-08-21T10:25:39.701Z,2.30
2017-08-21T10:28:07.863Z,2.60
2017-08-21T10:30:35.496Z,2.80
2017-08-21T10:33:03.073Z,3.03
2017-08-21T10:35:30.633Z,2.93
2017-08-21T10:37:58.282Z,2.70
2017-08-21T10:40:25.886Z,3.13
2017-08-21T10:42:53.445Z,3.00
2017-08-21T10:45:21.030Z,2.47
2017-08-21T10:47:48.581Z,3.37
2017-08-21T10:50:16.435Z,2.80
2017-08-21T10:52:44.688Z,3.23
2017-08-21T10:55:12.233Z,3.40
2017-08-21T10:57:39.814Z,2.80
2017-08-21T11:00:07.412Z,2.87
2017-08-21T11:02:34.965Z,2.80
2017-08-21T11:05:02.509Z,3.10
2017-08-21T11:07:30.093Z,3.20
2017-08-21T11:09:57.637Z,2.90
2017-08-21T11:12:25.182Z,3.37
2017-08-21T11:14:52.765Z,3.30
2017-08-21T11:17:20.309Z,3.35
2017-08-21T11:19:47.917Z,4.23
2017-08-21T11:22:15.920Z,3.25
2017-08-21T11:24:43.481Z,3.40
2017-08-21T11:27:11.022Z,2.77
2017-08-21T11:29:38.641Z,3.80
2017-08-21T11:32:06.185Z,3.20
2017-08-21T11:34:33.749Z,2.70
2017-08-21T11:37:01.338Z,3.20
2017-08-21T11:39:28.876Z,2.83
2017-08-21T11:41:56.413Z,2.93
2017-08-21T11:44:24.169Z,3.28
2017-08-21T11:46:51.719Z,2.53
2017-08-21T11:49:19.298Z,2.80
2017-08-21T11:51:46.862Z,2.90
2017-08-21T11:54:31.602Z,3.05
2017-08-21T12:00:45.342Z,3.10
2017-08-21T12:03:23.673Z,3.30
2017-08-21T12:11:36.239Z,3.00
2017-08-21T12:14:03.777Z,2.60
2017-08-21T12:16:31.324Z,3.37
2017-08-21T12:18:59.097Z,2.73
2017-08-21T12:21:26.634Z,3.07
2017-08-21T12:23:55.312Z,2.90
2017-08-21T12:26:22.881Z,2.90
2017-08-21T12:28:50.421Z,2.97
2017-08-21T12:31:17.974Z,2.93
2017-08-21T12:33:45.784Z,2.30
2017-08-21T12:36:24.249Z,2.70
2017-08-21T12:41:23.549Z,2.70
2017-08-21T12:43:51.128Z,3.00
2017-08-21T12:46:19.253Z,3.20
2017-08-21T12:48:46.837Z,2.93
2017-08-21T12:51:16.293Z,2.72
2017-08-21T12:53:43.852Z,2.83
2017-08-21T12:56:11.669Z,2.90
2017-08-21T12:58:39.231Z,3.70
2017-08-21T13:01:06.798Z,2.70
2017-08-21T13:03:34.418Z,2.50
2017-08-21T13:06:02.006Z,2.70
2017-08-21T13:08:29.617Z,3.22
2017-08-21T13:10:57.201Z,2.57
2017-08-21T13:13:24.761Z,2.62
2017-08-21T13:15:52.348Z,3.03
2017-08-21T13:18:19.945Z,2.67
2017-08-21T13:20:47.549Z,3.22
2017-08-21T13:23:16.533Z,3.00
2017-08-21T13:25:44.157Z,2.97
2017-08-21T13:28:12.619Z,3.30
2017-08-21T13:30:40.321Z,2.67
2017-08-21T13:33:07.905Z,3.17
2017-08-21T13:35:35.524Z,3.20
2017-08-21T13:38:03.081Z,2.90
2017-08-21T13:40:30.736Z,2.27
2017-08-21T13:42:58.321Z,2.80
2017-08-21T13:45:25.870Z,3.00
2017-08-21T13:47:53.490Z,3.30
2017-08-21T13:50:21.037Z,3.17
2017-08-21T13:52:48.625Z,3.47
2017-08-21T13:55:16.810Z,2.92
2017-08-21T13:57:44.871Z,2.53
2017-08-21T14:00:12.432Z,2.58
2017-08-21T14:02:40.056Z,3.07
2017-08-21T14:05:07.624Z,2.80
2017-08-21T14:07:35.179Z,3.00
2017-08-21T14:10:02.804Z,2.87
2017-08-21T14:12:30.402Z,2.47
2017-08-21T14:14:57.993Z,3.20
2017-08-21T14:17:25.593Z,2.93
2017-08-21T14:19:53.161Z,2.60
2017-08-21T14:22:20.761Z,2.87
2017-08-21T14:24:48.471Z,2.47
2017-08-21T14:27:16.420Z,3.17
2017-08-21T14:29:43.970Z,3.67
2017-08-21T14:32:11.614Z,2.70
2017-08-21T14:34:39.193Z,3.10
2017-08-21T14:37:06.775Z,2.90
2017-08-21T14:39:34.434Z,2.93
2017-08-21T14:42:02.025Z,3.10
2017-08-21T14:44:29.602Z,4.65
2017-08-21T14:46:57.414Z,3.07
2017-08-21T14:49:25.017Z,2.60
2017-08-21T14:51:52.602Z,2.83
2017-08-21T14:54:20.254Z,2.97
2017-08-21T14:56:47.836Z,3.00
2017-08-21T14:59:16.026Z,2.53
2017-08-21T15:01:43.614Z,3.17
2017-08-21T15:04:11.935Z,2.80
2017-08-21T15:06:39.519Z,3.37
2017-08-21T15:09:07.117Z,2.60
2017-08-21T15:11:34.681Z,2.70
2017-08-21T15:14:02.330Z,2.60
2017-08-21T15:16:29.971Z,3.43
2017-08-21T15:18:57.527Z,3.30
2017-08-21T15:21:25.082Z,2.62
2017-08-21T15:23:53.245Z,2.67
2017-08-21T15:26:20.797Z,2.78
2017-08-21T15:28:48.386Z,2.90
2017-08-21T15:31:16.432Z,2.93
2017-08-21T15:33:44.005Z,3.00
2017-08-21T15:36:11.546Z,3.85
2017-08-21T15:38:39.184Z,2.87
2017-08-21T15:41:06.744Z,2.80
2017-08-21T15:43:34.293Z,3.23
2017-08-21T15:46:01.861Z,3.50
2017-08-21T15:48:29.450Z,3.47
2017-08-21T15:50:56.996Z,2.43
2017-08-21T15:53:24.627Z,2.77
2017-08-21T15:55:52.197Z,3.30
2017-08-21T15:58:19.788Z,2.95
2017-08-21T16:00:47.907Z,3.13
2017-08-21T16:03:17.601Z,3.10
2017-08-21T16:05:45.160Z,3.20
2017-08-21T16:08:13.682Z,3.07
2017-08-21T16:10:41.269Z,2.80
2017-08-21T16:13:08.813Z,3.97
2017-08-21T16:15:36.386Z,2.70
2017-08-21T16:18:03.929Z,2.83
2017-08-21T16:20:31.489Z,2.58
2017-08-21T16:22:59.093Z,2.90
2017-08-21T16:25:26.869Z,3.37
2017-08-21T16:27:54.442Z,2.70
2017-08-21T16:30:22.036Z,3.30
2017-08-21T16:32:49.642Z,2.63
2017-08-21T16:35:17.207Z,3.60
2017-08-21T16:37:44.789Z,2.90
2017-08-21T16:40:12.452Z,2.83
2017-08-21T16:42:40.023Z,3.43
2017-08-21T16:45:07.646Z,3.00
2017-08-21T16:47:35.233Z,3.33
2017-08-21T16:50:02.786Z,3.70
2017-08-21T16:52:30.433Z,3.10
2017-08-21T16:54:57.983Z,3.03
2017-08-21T16:57:25.585Z,3.50
2017-08-21T16:59:54.022Z,3.47
2017-08-21T17:02:21.981Z,4.07
2017-08-21T17:04:49.534Z,4.20
2017-08-21T17:07:17.174Z,3.47
2017-08-21T17:09:45.850Z,3.50
2017-08-21T17:12:15.193Z,3.45
2017-08-21T17:14:42.775Z,3.40
2017-08-21T17:17:10.325Z,2.90
2017-08-21T17:19:37.867Z,3.90
2017-08-21T17:22:05.433Z,3.33
2017-08-21T17:24:32.984Z,3.45
2017-08-21T17:27:00.577Z,3.22
2017-08-21T17:29:28.210Z,3.33
2017-08-21T17:31:55.765Z,3.50
2017-08-21T17:34:23.324Z,3.73
2017-08-21T17:36:50.940Z,3.50
2017-08-21T17:39:18.505Z,3.70
2017-08-21T17:41:46.052Z,4.00
2017-08-21T17:44:14.603Z,3.80
2017-08-21T17:46:42.179Z,3.73
2017-08-21T17:49:09.735Z,4.20
2017-08-21T17:51:37.344Z,4.20
2017-08-21T17:54:04.888Z,4.27
2017-08-21T17:56:32.437Z,3.47
2017-08-21T17:59:00.030Z,3.80
2017-08-21T18:01:27.598Z,3.85
2017-08-21T18:03:55.485Z,3.60
2017-08-21T18:06:23.082Z,3.70
2017-08-21T18:08:50.653Z,4.23
2017-08-21T18:11:18.197Z,3.87
2017-08-21T18:13:45.888Z,4.37
2017-08-21T18:16:25.656Z,3.92
2017-08-21T18:23:32.682Z,4.78
2017-08-21T18:26:00.225Z,4.53
2017-08-21T18:28:27.821Z,4.67
2017-08-21T18:30:55.413Z,5.07
2017-08-21T18:33:22.962Z,4.80
2017-08-21T18:35:50.512Z,5.63
2017-08-21T18:38:18.078Z,5.00
2017-08-21T18:40:45.661Z,4.90
2017-08-21T18:43:24.603Z,5.00
2017-08-21T18:48:52.633Z,4.53
2017-08-21T18:51:20.239Z,5.20
2017-08-21T18:53:47.785Z,5.60
2017-08-21T18:56:16.492Z,5.40
2017-08-21T18:58:44.050Z,6.07
2017-08-21T19:01:11.604Z,5.80
2017-08-21T19:03:39.176Z,6.20
2017-08-21T19:06:07.069Z,6.83
2017-08-21T19:08:36.634Z,7.07
2017-08-21T19:11:04.261Z,5.93
2017-08-21T19:13:31.812Z,5.83
2017-08-21T19:15:59.511Z,7.20
2017-08-21T19:18:27.156Z,6.67
2017-08-21T19:20:54.739Z,6.80
2017-08-21T19:23:22.295Z,6.68
2017-08-21T19:25:49.860Z,7.30
2017-08-21T19:28:17.429Z,7.18
2017-08-21T19:30:45.001Z,7.93
2017-08-21T19:33:14.289Z,7.57
2017-08-21T19:35:41.984Z,7.50
2017-08-21T19:38:09.670Z,6.70
2017-08-21T19:40:37.711Z,7.60
2017-08-21T19:43:05.320Z,8.47
2017-08-21T19:45:32.947Z,7.32
2017-08-21T19:48:00.560Z,7.62
2017-08-21T19:50:28.153Z,7.13
2017-08-21T19:52:55.847Z,7.10
2017-08-21T19:55:23.483Z,7.47
2017-08-21T19:57:51.028Z,7.23
2017-08-21T20:00:18.577Z,7.25
2017-08-21T20:02:46.141Z,7.13
2017-08-21T20:05:16.304Z,6.78
2017-08-21T20:07:44.421Z,6.80
2017-08-21T20:10:11.985Z,7.20
2017-08-21T20:12:39.529Z,7.07
2017-08-21T20:15:07.068Z,6.67
2017-08-21T20:17:34.693Z,7.30
2017-08-21T20:20:02.237Z,6.90
2017-08-21T20:22:29.789Z,7.60
2017-08-21T20:24:57.365Z,8.17
2017-08-21T20:27:24.964Z,7.20
2017-08-21T20:29:52.513Z,7.37
2017-08-21T20:32:20.082Z,6.82
2017-08-21T20:34:47.621Z,7.80
2017-08-21T20:37:17.221Z,7.87
2017-08-21T20:39:45.248Z,9.03
2017-08-21T20:42:12.800Z,8.83
2017-08-21T20:44:40.340Z,8.40
2017-08-21T20:47:08.029Z,6.23
2017-08-21T20:49:35.663Z,6.37
2017-08-21T20:52:03.269Z,6.93
2017-08-21T20:54:30.831Z,6.30
2017-08-21T20:56:58.408Z,6.93
2017-08-21T20:59:25.956Z,6.90
2017-08-21T21:01:53.630Z,7.37
2017-08-21T21:04:22.099Z,6.03
2017-08-21T21:06:49.645Z,7.17
2017-08-21T21:09:17.645Z,6.27
2017-08-21T21:11:45.950Z,6.50
2017-08-21T21:14:14.573Z,6.45
2017-08-21T21:16:42.147Z,7.17
2017-08-21T21:19:09.687Z,6.83
2017-08-21T21:21:37.279Z,7.43
2017-08-21T21:24:05.325Z,6.80
2017-08-21T21:26:32.885Z,7.03
2017-08-21T21:29:00.434Z,7.35
2017-08-21T21:31:28.005Z,8.18
2017-08-21T21:33:55.742Z,7.80
2017-08-21T21:36:23.276Z,8.40
2017-08-21T21:38:50.846Z,8.40
2017-08-21T21:41:18.457Z,8.33
2017-08-21T21:43:45.993Z,8.27
2017-08-21T21:46:15.066Z,7.75
2017-08-21T21:48:42.645Z,8.60
2017-08-21T21:51:10.207Z,7.93
2017-08-21T21:53:37.837Z,8.33
2017-08-21T21:56:05.425Z,8.63
2017-08-21T21:58:32.966Z,7.87
2017-08-21T22:01:00.549Z,7.50
2017-08-21T22:03:28.089Z,7.83
2017-08-21T22:05:55.641Z,6.37
2017-08-21T22:08:23.260Z,6.97
2017-08-21T22:10:51.097Z,7.53
2017-08-21T22:13:18.645Z,7.85
2017-08-21T22:15:46.224Z,7.30
2017-08-21T22:18:14.620Z,8.20
2017-08-21T22:20:42.152Z,7.40
2017-08-21T22:23:09.741Z,7.57
2017-08-21T22:25:37.282Z,7.20
2017-08-21T22:28:04.825Z,8.40
2017-08-21T22:30:32.772Z,8.10
2017-08-21T22:33:00.317Z,8.07
2017-08-21T22:35:27.860Z,8.37
2017-08-21T22:37:56.193Z,7.43
2017-08-21T22:40:23.733Z,7.35
2017-08-21T22:42:51.275Z,8.17
2017-08-21T22:45:18.840Z,7.70
2017-08-21T22:47:46.385Z,7.72
2017-08-21T22:50:15.532Z,7.65
2017-08-21T22:52:43.134Z,8.37
2017-08-21T22:55:10.677Z,7.43
2017-08-21T22:57:38.220Z,7.53
2017-08-21T23:00:05.873Z,7.60
2017-08-21T23:02:44.154Z,7.35
2017-08-21T23:05:12.520Z,7.37
2017-08-21T23:07:40.069Z,6.70
2017-08-21T23:10:08.373Z,6.93
2017-08-21T23:12:36.172Z,7.47
2017-08-21T23:15:03.721Z,7.50
2017-08-21T23:17:31.263Z,7.77
2017-08-21T23:19:58.841Z,7.80
2017-08-21T23:22:26.385Z,8.00
2017-08-21T23:24:53.925Z,7.20
2017-08-21T23:27:21.486Z,6.82
2017-08-21T23:29:49.780Z,7.03
2017-08-21T23:32:17.317Z,8.00
2017-08-21T23:34:44.937Z,6.60
2017-08-21T23:37:12.489Z,7.60
2017-08-21T23:39:40.026Z,7.10
2017-08-21T23:42:07.605Z,7.87
2017-08-21T23:44:35.141Z,8.23
2017-08-21T23:47:02.678Z,7.80
2017-08-21T23:49:30.267Z,7.75
2017-08-21T23:51:57.813Z,7.23
2017-08-21T23:54:26.121Z,7.50
2017-08-21T23:56:53.706Z,7.13
2017-08-21T23:59:21.249Z,7.53
